Flight Track Log - Related Links

Times and Time Zones

All times are in EDT time to prevent confusion due to time zone crossing. See the SWA2131 flight status page for this flight to view local times or setup timezone preferences in your user account.

Time Position Orientation Groundspeed Altitude Reporting Facility
EDT Latitude Longitude Course Direction KTS MPH feet Rate Location/Type
Sat 10:43:05 AM 36.0667 -86.6500 158° South 220 253 3,400  Level Nashville TRACON
Sat 10:44:11 AM 36.1000 -86.5500 68° East 278 320 6,300 2,789 Climbing Nashville TRACON
Sat 10:44:59 AM 36.1167 -86.4833 73° East 292 336 8,700 2,621 Climbing Nashville TRACON
Sat 10:45:54 AM 36.1308 -86.3994 78° East 310 357 10,800 2,713 Climbing Memphis Center
Sat 10:46:54 AM 36.1628 -86.2875 71° East 336 387 13,900 3,250 Climbing Memphis Center
Sat 10:47:54 AM 36.1981 -86.1622 71° East 363 418 17,300 3,150 Climbing Memphis Center
Sat 10:48:54 AM 36.2503 -86.0436 61° Northeast 385 443 20,200 2,418 Climbing Memphis Center
Sat 10:51:10 AM 36.3756 -85.7517 62° Northeast 426 490 25,200 2,152 Climbing Indianapolis Center
Sat 10:52:12 AM 36.4342 -85.6103 63° Northeast 452 520 27,300 2,049 Climbing Indianapolis Center
Sat 10:53:13 AM 36.4969 -85.4633 62° Northeast 473 544 29,400 1,902 Climbing Indianapolis Center
Sat 10:54:15 AM 36.5597 -85.3097 63° Northeast 492 566 31,200 1,742 Climbing Indianapolis Center
Sat 10:55:17 AM 36.6344 -85.1194 64° Northeast 508 585 33,000 1,366 Climbing Indianapolis Center
Sat 10:56:18 AM 36.6853 -84.9511 69° East 515 593 34,000 488 Climbing Indianapolis Center
Sat 10:57:20 AM 36.7347 -84.7831 70° East 514 592 34,000  Level Indianapolis Center
Sat 10:58:21 AM 36.7875 -84.6158 68° East 513 590 34,000  Level Indianapolis Center
Sat 10:59:23 AM 36.8389 -84.4428 70° East 516 594 34,000 919 Level Indianapolis Center
Sat 11:00:25 AM 36.8892 -84.2739 70° East 517 595 35,900 1,463 Climbing Indianapolis Center
Sat 11:01:26 AM 36.9397 -84.1069 69° East 513 590 37,000 1,171 Climbing Indianapolis Center
Sat 11:02:28 AM 36.9906 -83.9356 70° East 524 603 38,300 976 Climbing Indianapolis Center
Sat 11:03:29 AM 37.0414 -83.7644 70° East 520 598 39,000 341 Climbing Indianapolis Center
Sat 11:04:31 AM 37.0897 -83.5942 70° East 516 594 39,000  Level Indianapolis Center
Sat 11:05:32 AM 37.1494 -83.3953 69° East 516 594 39,000  Level Indianapolis Center
Sat 11:06:34 AM 37.1989 -83.2231 70° East 518 596 39,000  Level Indianapolis Center
Sat 11:07:36 AM 37.2481 -83.0528 70° East 515 593 39,000  Level Indianapolis Center
Sat 11:08:37 AM 37.2975 -82.8803 70° East 516 594 39,000  Level Indianapolis Center
Sat 11:09:39 AM 37.3464 -82.7075 70° East 519 597 39,000  Level Indianapolis Center
Sat 11:10:40 AM 37.3961 -82.5342 70° East 523 602 39,000  Level Indianapolis Center
Sat 11:11:42 AM 37.4456 -82.3600 70° East 525 604 39,000  Level Indianapolis Center
Sat 11:12:43 AM 37.4933 -82.1869 71° East 522 601 39,000  Level Indianapolis Center
Sat 11:13:45 AM 37.5425 -82.0128 70° East 525 604 39,000  Level Indianapolis Center
Sat 11:14:46 AM 37.5903 -81.8367 71° East 529 609 39,000  Level Indianapolis Center
Sat 11:15:48 AM 37.6461 -81.6325 71° East 528 608 39,000  Level Indianapolis Center
Sat 11:16:49 AM 37.6869 -81.4814 71° East 527 606 39,000  Level Indianapolis Center
Sat 11:17:51 AM 37.7406 -81.2764 72° East 526 605 39,000  Level Indianapolis Center
Sat 11:18:52 AM 37.7833 -81.1064 72° East 522 601 39,000  Level Indianapolis Center
Sat 11:19:51 AM 37.7936 -80.9294 86° East 511 588 39,000  Level Washington Center
Sat 11:20:51 AM 37.8056 -80.7542 85° East 506 582 39,000  Level Washington Center
Sat 11:21:51 AM 37.8147 -80.5892 86° East 506 582 39,000  Level Washington Center
Sat 11:22:51 AM 37.8261 -80.4111 85° East 506 582 39,000  Level Washington Center
Sat 11:23:51 AM 37.8375 -80.2303 85° East 511 588 39,000 -650 Level Washington Center
Sat 11:24:51 AM 37.8506 -80.0522 85° East 516 594 37,700 -1,950 Descending Washington Center
Sat 11:25:51 AM 37.8611 -79.8714 86° East 516 594 35,100 -2,350 Descending Washington Center
Sat 11:26:51 AM 37.8725 -79.6719 86° East 516 594 33,000 -1,300 Descending Washington Center
Sat 11:27:51 AM 37.8844 -79.5017 85° East 504 580 32,500 -750 Descending Washington Center
Sat 11:28:51 AM 37.8919 -79.3311 87° East 489 563 31,500 -750 Descending Washington Center
Sat 11:29:51 AM 37.9033 -79.1606 85° East 484 557 31,000 -250 Descending Washington Center
Sat 11:30:51 AM 37.9186 -78.9928 83° East 477 549 31,000  Level Washington Center
Sat 11:31:51 AM 37.9378 -78.8250 82° East 477 549 31,000  Level Washington Center
Sat 11:32:51 AM 37.9564 -78.6731 81° East 477 549 31,000  Level Washington Center
Sat 11:33:51 AM 37.9772 -78.5106 81° East 477 549 31,000  Level Washington Center
Sat 11:34:51 AM 37.9958 -78.3400 82° East 482 555 31,000  Level Washington Center
Sat 11:35:51 AM 38.0231 -78.1511 80° East 482 555 31,000  Level Washington Center
Sat 11:36:51 AM 38.0972 -77.9875 60° Northeast 493 567 31,000 -350 Level Washington Center
Sat 11:37:51 AM 38.1753 -77.8264 58° Northeast 511 588 30,300 -850 Descending Washington Center
Sat 11:38:51 AM 38.2575 -77.6647 57° Northeast 531 611 29,300 -650 Descending Washington Center
Sat 11:39:51 AM 38.3353 -77.5028 58° Northeast 536 617 29,000 -150 Descending Washington Center
Sat 11:40:51 AM 38.4169 -77.3406 57° Northeast 536 617 29,000  Level Washington Center
Sat 11:41:51 AM 38.4942 -77.1806 58° Northeast 536 617 29,000 -350 Level Washington Center
Sat 11:42:51 AM 38.5736 -77.0150 58° Northeast 536 617 28,300 -1,650 Descending Washington Center
Sat 11:43:51 AM 38.6525 -76.8517 58° Northeast 536 617 25,700 -2,150 Descending Washington Center
Sat 11:44:51 AM 38.7167 -76.6853 64° Northeast 531 611 24,000 -1,450 Descending Washington Center
Sat 11:45:51 AM 38.7492 -76.5286 75° East 481 554 22,800 -2,150 Descending Washington Center
Sat 11:46:51 AM 38.7772 -76.3800 76° East 475 547 19,700 -2,700 Descending Washington Center
Sat 11:47:51 AM 38.8117 -76.2203 74° East 470 541 17,400 -2,200 Descending Washington Center
Sat 11:48:51 AM 38.8478 -76.0661 73° East 462 532 15,300 -1,250 Descending Washington Center
Sat 11:49:51 AM 38.8753 -75.9222 76° East 438 504 14,900 -550 Descending Washington Center
Sat 11:50:51 AM 38.9319 -75.7972 60° Northeast 419 482 14,200 -850 Descending Washington Center
Sat 11:51:51 AM 39.0236 -75.7144 35° Northeast 396 456 13,200 -1,015 Descending Washington Center
Sat 11:53:01 AM 39.1525 -75.6681 16° North 363 418 12,000 -800 Descending FAA TRACON SMA TRACON (SMA)
Sat 11:53:21 AM 39.1831 -75.6647 North 358 412 12,000  Level FAA TRACON SMA TRACON (SMA)
Sat 11:53:41 AM 39.2136 -75.6614 North 358 412 12,000 -1,350 Level FAA TRACON SMA TRACON (SMA)
Sat 11:54:01 AM 39.2508 -75.6569 North 357 411 11,100 -2,100 Descending FAA TRACON SMA TRACON (SMA)
Sat 11:54:21 AM 39.2828 -75.6506 North 370 426 10,600 -1,500 Descending FAA TRACON SMA TRACON (SMA)
Sat 11:54:41 AM 39.3094 -75.6308 30° Northeast 368 423 10,100 -900 Descending FAA TRACON SMA TRACON (SMA)
Sat 11:55:01 AM 39.3325 -75.6089 36° Northeast 358 412 10,000 -293 Descending FAA TRACON SMA TRACON (SMA)
Sat 11:55:22 AM 39.3661 -75.5828 31° Northeast 341 392 9,900 -750 Descending FAA TRACON SMA TRACON (SMA)
Sat 11:55:41 AM 39.3839 -75.5575 48° Northeast 323 372 9,500 -1,231 Descending FAA TRACON SMA TRACON (SMA)
Sat 11:56:01 AM 39.4014 -75.5303 50° Northeast 329 379 9,100 -1,200 Descending FAA TRACON SMA TRACON (SMA)
Sat 11:56:21 AM 39.4250 -75.4961 48° Northeast 313 360 8,700 -1,200 Descending FAA TRACON SMA TRACON (SMA)
Sat 11:56:41 AM 39.4417 -75.4689 52° Northeast 314 361 8,300 -1,350 Descending FAA TRACON SMA TRACON (SMA)
Sat 11:57:01 AM 39.4622 -75.4372 50° Northeast 311 358 7,800 -1,200 Descending FAA TRACON SMA TRACON (SMA)
Sat 11:57:21 AM 39.4792 -75.4094 52° Northeast 307 353 7,500 -1,050 Descending FAA TRACON SMA TRACON (SMA)
Sat 11:57:41 AM 39.4922 -75.3817 59° Northeast 296 341 7,100 -750 Descending FAA TRACON SMA TRACON (SMA)
Sat 11:58:01 AM 39.5025 -75.3428 71° East 298 343 7,000 -150 Descending FAA TRACON SMA TRACON (SMA)
Sat 11:58:21 AM 39.5117 -75.3100 70° East 308 354 7,000  Level FAA TRACON SMA TRACON (SMA)
Sat 11:58:41 AM 39.5206 -75.2778 70° East 310 357 7,000  Level FAA TRACON SMA TRACON (SMA)
Sat 11:59:01 AM 39.5311 -75.2406 70° East 304 350 7,000  Level FAA TRACON SMA TRACON (SMA)
Sat 11:59:21 AM 39.5400 -75.2075 71° East 300 345 7,000  Level FAA TRACON SMA TRACON (SMA)
Sat 11:59:41 AM 39.5497 -75.1778 67° East 296 341 7,000 -1,200 Level FAA TRACON SMA TRACON (SMA)
Sat 12:00:01 PM 39.5708 -75.1492 46° Northeast 286 329 6,200 -1,800 Descending FAA TRACON SMA TRACON (SMA)
Sat 12:00:21 PM 39.5892 -75.1275 42° Northeast 288 331 5,800 -1,050 Descending FAA TRACON SMA TRACON (SMA)
Sat 12:00:41 PM 39.6075 -75.1058 42° Northeast 288 331 5,500 -750 Descending FAA TRACON SMA TRACON (SMA)
Sat 12:01:01 PM 39.6289 -75.0797 43° Northeast 282 325 5,300 -732 Descending FAA TRACON SMA TRACON (SMA)
Sat 12:01:22 PM 39.6458 -75.0578 45° Northeast 275 316 5,000 -1,171 Descending FAA TRACON SMA TRACON (SMA)
Sat 12:01:42 PM 39.6647 -75.0433 30° Northeast 259 298 4,500 -1,500 Descending FAA TRACON SMA TRACON (SMA)
Sat 12:02:02 PM 39.6903 -75.0306 21° North 253 291 4,000 -1,350 Descending FAA TRACON SMA TRACON (SMA)
Sat 12:02:22 PM 39.7114 -75.0294 North 246 283 3,600 -1,350 Descending FAA TRACON SMA TRACON (SMA)
Sat 12:02:42 PM 39.7325 -75.0283 North 246 283 3,100 -900 Descending FAA TRACON SMA TRACON (SMA)
Sat 12:03:02 PM 39.7589 -75.0269 North 244 281 3,000 -150 Descending FAA TRACON SMA TRACON (SMA)
Sat 12:03:22 PM 39.7781 -75.0264 North 224 258 3,000  Level FAA TRACON SMA TRACON (SMA)
Sat 12:03:42 PM 39.7944 -75.0247 North 200 230 3,000  Level FAA TRACON SMA TRACON (SMA)
Sat 12:04:02 PM 39.8164 -75.0236 North 189 217 3,000  Level FAA TRACON SMA TRACON (SMA)
Sat 12:04:22 PM 39.8328 -75.0231 North 190 219 3,000 -450 Level FAA TRACON SMA TRACON (SMA)
Sat 12:04:42 PM 39.8511 -75.0308 342° North 177 204 2,700 -900 Descending FAA TRACON SMA TRACON (SMA)
Sat 12:05:02 PM 39.8667 -75.0375 342° North 184 212 2,400 -1,050 Descending FAA TRACON SMA TRACON (SMA)
Sat 12:05:22 PM 39.8814 -75.0433 343° North 181 208 2,000 -600 Descending FAA TRACON SMA TRACON (SMA)
Sat 12:05:42 PM 39.8925 -75.0558 319° Northwest 168 193 2,000  Level FAA TRACON SMA TRACON (SMA)
Sat 12:06:02 PM 39.8986 -75.0794 289° West 175 201 2,000  Level FAA TRACON SMA TRACON (SMA)
Sat 12:06:22 PM 39.9003 -75.0983 277° West 177 204 2,000 -450 Level FAA TRACON SMA TRACON (SMA)
Sat 12:06:42 PM 39.8961 -75.1169 254° West 176 203 1,700 -1,050 Descending FAA TRACON SMA TRACON (SMA)
Sat 12:07:02 PM 39.8919 -75.1394 256° West 165 190 1,300 -900 Descending FAA TRACON SMA TRACON (SMA)
Sat 12:07:22 PM 39.8894 -75.1556 259° West 144 166 1,100 -600 Descending FAA TRACON SMA TRACON (SMA)
Sat 12:07:42 PM 39.8858 -75.1711 253° West 133 153 900 -750 Descending FAA TRACON SMA TRACON (SMA)
Sat 12:08:02 PM 39.8828 -75.1861 255° West 129 148 600 -750 Descending FAA TRACON SMA TRACON (SMA)
Sat 12:08:22 PM 39.8800 -75.1997 255° West 125 144 400 -600 Descending FAA TRACON SMA TRACON (SMA)
Sat 12:08:42 PM 39.8772 -75.2128 255° West 123 142 200 -300 Descending FAA TRACON SMA TRACON (SMA)
Sat 12:09:02 PM 39.8767 -75.2161 258° West 122 140 200  Level FAA TRACON SMA TRACON (SMA)
Sat 12:11:00 PM 39.8667 -75.2333 38° Northeast  Level FlightAware Approximate

Login

Don't have an account? Register now (free) for customized features, flight alerts, and more!